Onset, Massachusetts
Current Conditions -  °F | °C
As of 12:35 AM on Wednesday 22 Oct 2014 (Local Time) from KFMH Reporting Station
Overcast Overcast  
Wind Chill: 57°   Ceiling: 1000
Heat Index: 57°   Visibility: 8mi
Dew Point: 57°   Wind: 7mph
Humidity: 100%   Direction: 50°NE
Pressure: 29.95"   Gusts: NA
Location:  41.75°N, 70.67°W
Report Text: KFMH 220435Z AUTO 05006KT 8SM FEW006 BKN010 OVC014 14/14 A2995 RMK AO2
Loading
Personal Weather Stations






























Interactive Weather Map
Tropical Storm Tracking
New forecast layout! Learn more

10-Day Weather Forecast

Advertisements
Track Severe Weather on mobile